高雄國際航空站 - 塔台/地面席

METAR RCKH 161530Z 02003KT 350V060 6000 FEW015 BKN040 BKN060 22/19 Q1018 NOSIG RMK A3008(C)=

站台狀態:Online
最後更新:2018-12-16 23:30:02